sensor_id;sensor_type;location;lat;lon;timestamp;P1;durP1;ratioP1;P2;durP2;ratioP2
19891;SDS011;10108;50.142;8.724;2023-03-01T00:01:02;18.17;;;11.68;;
19891;SDS011;10108;50.142;8.724;2023-03-01T00:03:30;20.13;;;12.23;;
19891;SDS011;10108;50.142;8.724;2023-03-01T00:05:58;20.92;;;12.55;;
19891;SDS011;10108;50.142;8.724;2023-03-01T00:08:25;18.05;;;12.05;;
19891;SDS011;10108;50.142;8.724;2023-03-01T00:13:39;19.80;;;12.55;;
19891;SDS011;10108;50.142;8.724;2023-03-01T00:16:08;21.67;;;12.80;;
19891;SDS011;10108;50.142;8.724;2023-03-01T00:18:36;20.70;;;13.02;;
19891;SDS011;10108;50.142;8.724;2023-03-01T00:21:02;17.63;;;12.27;;
19891;SDS011;10108;50.142;8.724;2023-03-01T00:23:28;18.58;;;12.05;;
19891;SDS011;10108;50.142;8.724;2023-03-01T00:25:55;22.25;;;12.70;;
19891;SDS011;10108;50.142;8.724;2023-03-01T00:28:21;19.35;;;12.32;;
19891;SDS011;10108;50.142;8.724;2023-03-01T00:30:47;20.13;;;12.60;;
19891;SDS011;10108;50.142;8.724;2023-03-01T00:33:13;20.67;;;12.52;;
19891;SDS011;10108;50.142;8.724;2023-03-01T00:35:39;19.30;;;11.85;;
19891;SDS011;10108;50.142;8.724;2023-03-01T00:38:05;21.42;;;11.98;;
19891;SDS011;10108;50.142;8.724;2023-03-01T00:40:33;18.67;;;11.95;;
19891;SDS011;10108;50.142;8.724;2023-03-01T00:43:00;18.55;;;11.80;;
19891;SDS011;10108;50.142;8.724;2023-03-01T00:45:27;24.98;;;12.43;;
19891;SDS011;10108;50.142;8.724;2023-03-01T00:47:53;19.25;;;12.63;;
19891;SDS011;10108;50.142;8.724;2023-03-01T00:50:20;22.75;;;12.50;;
19891;SDS011;10108;50.142;8.724;2023-03-01T00:52:46;20.95;;;12.85;;
19891;SDS011;10108;50.142;8.724;2023-03-01T00:55:12;20.50;;;12.75;;
19891;SDS011;10108;50.142;8.724;2023-03-01T00:57:39;19.10;;;12.32;;
19891;SDS011;10108;50.142;8.724;2023-03-01T01:00:06;17.77;;;11.50;;
19891;SDS011;10108;50.142;8.724;2023-03-01T01:02:33;23.70;;;12.90;;
19891;SDS011;10108;50.142;8.724;2023-03-01T01:05:00;21.40;;;12.68;;
19891;SDS011;10108;50.142;8.724;2023-03-01T01:07:26;19.60;;;12.45;;
19891;SDS011;10108;50.142;8.724;2023-03-01T01:09:52;24.88;;;12.73;;
19891;SDS011;10108;50.142;8.724;2023-03-01T01:12:18;18.27;;;12.13;;
19891;SDS011;10108;50.142;8.724;2023-03-01T01:14:44;24.73;;;13.05;;
19891;SDS011;10108;50.142;8.724;2023-03-01T01:17:11;19.70;;;12.07;;
19891;SDS011;10108;50.142;8.724;2023-03-01T01:19:37;22.05;;;13.23;;
19891;SDS011;10108;50.142;8.724;2023-03-01T01:22:04;23.02;;;12.75;;
19891;SDS011;10108;50.142;8.724;2023-03-01T01:24:31;18.58;;;12.52;;
19891;SDS011;10108;50.142;8.724;2023-03-01T01:26:57;18.63;;;12.38;;
19891;SDS011;10108;50.142;8.724;2023-03-01T01:29:23;18.90;;;12.88;;
19891;SDS011;10108;50.142;8.724;2023-03-01T01:31:49;21.98;;;12.98;;
19891;SDS011;10108;50.142;8.724;2023-03-01T01:34:16;20.48;;;12.43;;
19891;SDS011;10108;50.142;8.724;2023-03-01T01:36:47;23.77;;;12.50;;
19891;SDS011;10108;50.142;8.724;2023-03-01T01:39:20;18.95;;;12.30;;
19891;SDS011;10108;50.142;8.724;2023-03-01T01:41:47;23.00;;;13.27;;
19891;SDS011;10108;50.142;8.724;2023-03-01T01:44:26;21.58;;;12.82;;
19891;SDS011;10108;50.142;8.724;2023-03-01T01:46:54;20.48;;;12.80;;
19891;SDS011;10108;50.142;8.724;2023-03-01T01:52:24;19.85;;;12.40;;
19891;SDS011;10108;50.142;8.724;2023-03-01T01:57:37;22.17;;;13.05;;
19891;SDS011;10108;50.142;8.724;2023-03-01T02:00:08;22.92;;;12.90;;
19891;SDS011;10108;50.142;8.724;2023-03-01T02:02:40;22.13;;;13.10;;
19891;SDS011;10108;50.142;8.724;2023-03-01T02:05:16;21.10;;;13.20;;
19891;SDS011;10108;50.142;8.724;2023-03-01T02:07:51;22.40;;;13.80;;
19891;SDS011;10108;50.142;8.724;2023-03-01T02:10:19;19.80;;;13.13;;
19891;SDS011;10108;50.142;8.724;2023-03-01T02:12:48;18.63;;;12.77;;
19891;SDS011;10108;50.142;8.724;2023-03-01T02:15:14;20.27;;;13.05;;
19891;SDS011;10108;50.142;8.724;2023-03-01T02:17:40;20.90;;;13.50;;
19891;SDS011;10108;50.142;8.724;2023-03-01T02:22:56;21.05;;;13.45;;
19891;SDS011;10108;50.142;8.724;2023-03-01T02:25:40;20.20;;;13.30;;
19891;SDS011;10108;50.142;8.724;2023-03-01T02:30:39;24.48;;;14.15;;
19891;SDS011;10108;50.142;8.724;2023-03-01T02:33:29;21.08;;;13.45;;
19891;SDS011;10108;50.142;8.724;2023-03-01T02:35:58;22.20;;;13.63;;
19891;SDS011;10108;50.142;8.724;2023-03-01T02:38:37;21.08;;;13.70;;
19891;SDS011;10108;50.142;8.724;2023-03-01T02:41:03;21.42;;;13.45;;
19891;SDS011;10108;50.142;8.724;2023-03-01T02:43:32;24.58;;;13.88;;
19891;SDS011;10108;50.142;8.724;2023-03-01T02:46:34;24.20;;;13.60;;
19891;SDS011;10108;50.142;8.724;2023-03-01T02:48:53;23.10;;;13.30;;
19891;SDS011;10108;50.142;8.724;2023-03-01T02:56:25;21.40;;;13.60;;
19891;SDS011;10108;50.142;8.724;2023-03-01T02:58:52;27.00;;;14.73;;
19891;SDS011;10108;50.142;8.724;2023-03-01T03:01:19;23.67;;;14.38;;
19891;SDS011;10108;50.142;8.724;2023-03-01T03:03:46;24.35;;;13.93;;
19891;SDS011;10108;50.142;8.724;2023-03-01T03:06:13;22.25;;;13.70;;
19891;SDS011;10108;50.142;8.724;2023-03-01T03:08:39;24.30;;;14.07;;
19891;SDS011;10108;50.142;8.724;2023-03-01T03:11:06;22.05;;;13.85;;
19891;SDS011;10108;50.142;8.724;2023-03-01T03:13:32;22.38;;;13.70;;
19891;SDS011;10108;50.142;8.724;2023-03-01T03:15:58;24.77;;;14.02;;
19891;SDS011;10108;50.142;8.724;2023-03-01T03:18:24;22.08;;;13.70;;
19891;SDS011;10108;50.142;8.724;2023-03-01T03:20:53;26.65;;;15.10;;
19891;SDS011;10108;50.142;8.724;2023-03-01T03:23:20;23.30;;;14.27;;
19891;SDS011;10108;50.142;8.724;2023-03-01T03:25:50;23.13;;;14.13;;
19891;SDS011;10108;50.142;8.724;2023-03-01T03:28:17;24.13;;;14.40;;
19891;SDS011;10108;50.142;8.724;2023-03-01T03:30:43;22.85;;;14.18;;
19891;SDS011;10108;50.142;8.724;2023-03-01T03:33:11;22.45;;;14.18;;
19891;SDS011;10108;50.142;8.724;2023-03-01T03:35:38;20.35;;;13.45;;
19891;SDS011;10108;50.142;8.724;2023-03-01T03:38:13;23.27;;;14.25;;
19891;SDS011;10108;50.142;8.724;2023-03-01T03:40:42;23.67;;;14.07;;
19891;SDS011;10108;50.142;8.724;2023-03-01T03:43:12;22.98;;;14.82;;
19891;SDS011;10108;50.142;8.724;2023-03-01T03:45:39;24.33;;;14.15;;
19891;SDS011;10108;50.142;8.724;2023-03-01T03:48:07;24.33;;;14.52;;
19891;SDS011;10108;50.142;8.724;2023-03-01T03:50:37;22.80;;;14.18;;
19891;SDS011;10108;50.142;8.724;2023-03-01T03:53:09;23.30;;;14.60;;
19891;SDS011;10108;50.142;8.724;2023-03-01T03:55:36;27.25;;;15.30;;
19891;SDS011;10108;50.142;8.724;2023-03-01T03:58:05;26.58;;;14.88;;
19891;SDS011;10108;50.142;8.724;2023-03-01T04:00:36;25.95;;;15.05;;
19891;SDS011;10108;50.142;8.724;2023-03-01T04:03:04;24.83;;;15.23;;
19891;SDS011;10108;50.142;8.724;2023-03-01T04:05:30;22.52;;;14.52;;
19891;SDS011;10108;50.142;8.724;2023-03-01T04:07:57;21.63;;;14.52;;
19891;SDS011;10108;50.142;8.724;2023-03-01T04:10:33;23.90;;;14.25;;
19891;SDS011;10108;50.142;8.724;2023-03-01T04:13:03;23.88;;;15.10;;
19891;SDS011;10108;50.142;8.724;2023-03-01T04:15:33;25.80;;;15.45;;
19891;SDS011;10108;50.142;8.724;2023-03-01T04:17:59;24.48;;;15.10;;
19891;SDS011;10108;50.142;8.724;2023-03-01T04:20:27;29.55;;;15.68;;
19891;SDS011;10108;50.142;8.724;2023-03-01T04:22:58;24.48;;;15.30;;
19891;SDS011;10108;50.142;8.724;2023-03-01T04:25:42;26.35;;;15.40;;
19891;SDS011;10108;50.142;8.724;2023-03-01T04:28:10;25.50;;;15.18;;
19891;SDS011;10108;50.142;8.724;2023-03-01T04:30:37;22.98;;;15.18;;
19891;SDS011;10108;50.142;8.724;2023-03-01T04:33:04;25.10;;;14.75;;
19891;SDS011;10108;50.142;8.724;2023-03-01T04:35:32;24.67;;;15.93;;
19891;SDS011;10108;50.142;8.724;2023-03-01T04:37:58;26.50;;;16.02;;
19891;SDS011;10108;50.142;8.724;2023-03-01T04:40:24;23.73;;;14.75;;
19891;SDS011;10108;50.142;8.724;2023-03-01T04:42:50;25.98;;;15.68;;
19891;SDS011;10108;50.142;8.724;2023-03-01T04:45:16;25.98;;;16.23;;
19891;SDS011;10108;50.142;8.724;2023-03-01T04:47:43;24.65;;;16.00;;
19891;SDS011;10108;50.142;8.724;2023-03-01T04:50:12;23.60;;;15.27;;
19891;SDS011;10108;50.142;8.724;2023-03-01T04:52:40;25.23;;;15.82;;
19891;SDS011;10108;50.142;8.724;2023-03-01T04:55:06;24.92;;;15.25;;
19891;SDS011;10108;50.142;8.724;2023-03-01T04:57:33;28.88;;;15.93;;
19891;SDS011;10108;50.142;8.724;2023-03-01T04:59:59;26.67;;;15.82;;
19891;SDS011;10108;50.142;8.724;2023-03-01T05:02:26;26.08;;;14.98;;
19891;SDS011;10108;50.142;8.724;2023-03-01T05:04:52;27.10;;;15.75;;
19891;SDS011;10108;50.142;8.724;2023-03-01T05:07:22;25.13;;;15.32;;
19891;SDS011;10108;50.142;8.724;2023-03-01T05:09:50;25.20;;;15.07;;
19891;SDS011;10108;50.142;8.724;2023-03-01T05:12:16;23.70;;;15.15;;
19891;SDS011;10108;50.142;8.724;2023-03-01T05:14:42;27.77;;;16.00;;
19891;SDS011;10108;50.142;8.724;2023-03-01T05:17:08;27.30;;;16.38;;
19891;SDS011;10108;50.142;8.724;2023-03-01T05:19:34;25.13;;;15.40;;
19891;SDS011;10108;50.142;8.724;2023-03-01T05:22:01;24.75;;;14.93;;
19891;SDS011;10108;50.142;8.724;2023-03-01T05:24:27;25.92;;;15.38;;
19891;SDS011;10108;50.142;8.724;2023-03-01T05:26:54;24.77;;;15.07;;
19891;SDS011;10108;50.142;8.724;2023-03-01T05:29:21;23.50;;;15.70;;
19891;SDS011;10108;50.142;8.724;2023-03-01T05:31:51;24.13;;;15.45;;
19891;SDS011;10108;50.142;8.724;2023-03-01T05:34:19;23.67;;;14.90;;
19891;SDS011;10108;50.142;8.724;2023-03-01T05:36:53;24.65;;;15.50;;
19891;SDS011;10108;50.142;8.724;2023-03-01T05:39:23;26.25;;;15.88;;
19891;SDS011;10108;50.142;8.724;2023-03-01T05:41:54;27.38;;;15.57;;
19891;SDS011;10108;50.142;8.724;2023-03-01T05:44:25;29.30;;;15.85;;
19891;SDS011;10108;50.142;8.724;2023-03-01T05:46:52;25.35;;;15.10;;
19891;SDS011;10108;50.142;8.724;2023-03-01T05:49:18;25.85;;;16.30;;
19891;SDS011;10108;50.142;8.724;2023-03-01T05:51:48;26.23;;;15.75;;
19891;SDS011;10108;50.142;8.724;2023-03-01T05:54:16;27.77;;;16.13;;
19891;SDS011;10108;50.142;8.724;2023-03-01T05:56:43;27.88;;;15.25;;
19891;SDS011;10108;50.142;8.724;2023-03-01T05:59:10;28.95;;;16.48;;
19891;SDS011;10108;50.142;8.724;2023-03-01T06:01:37;30.40;;;16.20;;
19891;SDS011;10108;50.142;8.724;2023-03-01T06:04:03;26.38;;;15.88;;
19891;SDS011;10108;50.142;8.724;2023-03-01T06:06:33;25.17;;;15.75;;
19891;SDS011;10108;50.142;8.724;2023-03-01T06:09:03;28.65;;;15.85;;
19891;SDS011;10108;50.142;8.724;2023-03-01T06:11:34;25.63;;;14.93;;
19891;SDS011;10108;50.142;8.724;2023-03-01T06:14:01;22.70;;;15.13;;
19891;SDS011;10108;50.142;8.724;2023-03-01T06:16:28;25.98;;;15.48;;
19891;SDS011;10108;50.142;8.724;2023-03-01T06:18:54;24.58;;;15.30;;
19891;SDS011;10108;50.142;8.724;2023-03-01T06:21:20;26.77;;;16.02;;
19891;SDS011;10108;50.142;8.724;2023-03-01T06:23:47;26.52;;;15.13;;
19891;SDS011;10108;50.142;8.724;2023-03-01T06:26:13;25.27;;;15.40;;
19891;SDS011;10108;50.142;8.724;2023-03-01T06:28:39;26.08;;;15.82;;
19891;SDS011;10108;50.142;8.724;2023-03-01T06:31:05;25.55;;;16.02;;
19891;SDS011;10108;50.142;8.724;2023-03-01T06:33:34;28.20;;;16.20;;
19891;SDS011;10108;50.142;8.724;2023-03-01T06:36:01;28.45;;;15.93;;
19891;SDS011;10108;50.142;8.724;2023-03-01T06:38:27;27.52;;;16.00;;
19891;SDS011;10108;50.142;8.724;2023-03-01T06:40:54;27.63;;;15.77;;
19891;SDS011;10108;50.142;8.724;2023-03-01T06:43:22;25.45;;;15.23;;
19891;SDS011;10108;50.142;8.724;2023-03-01T06:45:49;25.45;;;15.13;;
19891;SDS011;10108;50.142;8.724;2023-03-01T06:48:15;26.08;;;16.02;;
19891;SDS011;10108;50.142;8.724;2023-03-01T06:50:41;26.70;;;15.68;;
19891;SDS011;10108;50.142;8.724;2023-03-01T06:53:07;27.80;;;15.82;;
19891;SDS011;10108;50.142;8.724;2023-03-01T06:55:33;28.63;;;16.05;;
19891;SDS011;10108;50.142;8.724;2023-03-01T06:58:00;24.48;;;15.63;;
19891;SDS011;10108;50.142;8.724;2023-03-01T07:00:27;26.00;;;15.07;;
19891;SDS011;10108;50.142;8.724;2023-03-01T07:02:54;25.73;;;15.20;;
19891;SDS011;10108;50.142;8.724;2023-03-01T07:05:23;24.70;;;15.05;;
19891;SDS011;10108;50.142;8.724;2023-03-01T07:07:49;26.52;;;14.80;;
19891;SDS011;10108;50.142;8.724;2023-03-01T07:10:15;26.73;;;14.77;;
19891;SDS011;10108;50.142;8.724;2023-03-01T07:12:41;25.85;;;15.63;;
19891;SDS011;10108;50.142;8.724;2023-03-01T07:15:08;30.63;;;16.77;;
19891;SDS011;10108;50.142;8.724;2023-03-01T07:17:35;24.17;;;15.25;;
19891;SDS011;10108;50.142;8.724;2023-03-01T07:20:02;26.25;;;16.00;;
19891;SDS011;10108;50.142;8.724;2023-03-01T07:22:28;26.13;;;15.38;;
19891;SDS011;10108;50.142;8.724;2023-03-01T07:24:54;24.13;;;15.30;;
19891;SDS011;10108;50.142;8.724;2023-03-01T07:27:20;25.98;;;15.45;;
19891;SDS011;10108;50.142;8.724;2023-03-01T07:29:46;25.77;;;15.85;;
19891;SDS011;10108;50.142;8.724;2023-03-01T07:32:12;24.15;;;15.05;;
19891;SDS011;10108;50.142;8.724;2023-03-01T07:34:38;27.63;;;16.10;;
19891;SDS011;10108;50.142;8.724;2023-03-01T07:37:04;24.90;;;15.30;;
19891;SDS011;10108;50.142;8.724;2023-03-01T07:39:30;29.98;;;16.20;;
19891;SDS011;10108;50.142;8.724;2023-03-01T07:41:57;24.80;;;14.68;;
19891;SDS011;10108;50.142;8.724;2023-03-01T07:44:23;31.02;;;16.17;;
19891;SDS011;10108;50.142;8.724;2023-03-01T07:46:49;29.63;;;15.82;;
19891;SDS011;10108;50.142;8.724;2023-03-01T07:49:15;27.15;;;16.20;;
19891;SDS011;10108;50.142;8.724;2023-03-01T07:51:42;28.17;;;15.90;;
19891;SDS011;10108;50.142;8.724;2023-03-01T07:54:09;28.10;;;15.95;;
19891;SDS011;10108;50.142;8.724;2023-03-01T07:56:35;27.27;;;15.73;;
19891;SDS011;10108;50.142;8.724;2023-03-01T07:59:01;27.25;;;16.45;;
19891;SDS011;10108;50.142;8.724;2023-03-01T08:01:27;26.30;;;16.17;;
19891;SDS011;10108;50.142;8.724;2023-03-01T08:03:53;26.50;;;15.77;;
19891;SDS011;10108;50.142;8.724;2023-03-01T08:06:19;27.23;;;15.75;;
19891;SDS011;10108;50.142;8.724;2023-03-01T08:08:45;29.25;;;16.33;;
19891;SDS011;10108;50.142;8.724;2023-03-01T08:11:12;27.88;;;15.77;;
19891;SDS011;10108;50.142;8.724;2023-03-01T08:13:39;25.90;;;14.80;;
19891;SDS011;10108;50.142;8.724;2023-03-01T08:16:06;28.85;;;17.52;;
19891;SDS011;10108;50.142;8.724;2023-03-01T08:18:35;26.58;;;15.75;;
19891;SDS011;10108;50.142;8.724;2023-03-01T08:21:09;28.70;;;16.05;;
19891;SDS011;10108;50.142;8.724;2023-03-01T08:23:38;29.55;;;16.52;;
19891;SDS011;10108;50.142;8.724;2023-03-01T08:26:14;27.80;;;17.15;;
19891;SDS011;10108;50.142;8.724;2023-03-01T08:28:42;27.60;;;16.70;;
19891;SDS011;10108;50.142;8.724;2023-03-01T08:31:16;30.55;;;16.98;;
19891;SDS011;10108;50.142;8.724;2023-03-01T08:33:44;29.27;;;16.75;;
19891;SDS011;10108;50.142;8.724;2023-03-01T08:36:21;28.33;;;16.50;;
19891;SDS011;10108;50.142;8.724;2023-03-01T08:38:48;28.50;;;16.30;;
19891;SDS011;10108;50.142;8.724;2023-03-01T08:41:14;29.60;;;16.67;;
19891;SDS011;10108;50.142;8.724;2023-03-01T08:43:41;28.73;;;15.82;;
19891;SDS011;10108;50.142;8.724;2023-03-01T08:46:07;30.60;;;16.00;;
19891;SDS011;10108;50.142;8.724;2023-03-01T08:48:33;26.77;;;16.35;;
19891;SDS011;10108;50.142;8.724;2023-03-01T08:51:16;27.15;;;16.15;;
19891;SDS011;10108;50.142;8.724;2023-03-01T08:53:43;26.27;;;16.13;;
19891;SDS011;10108;50.142;8.724;2023-03-01T08:56:10;28.75;;;16.27;;
19891;SDS011;10108;50.142;8.724;2023-03-01T08:58:37;28.48;;;16.30;;
19891;SDS011;10108;50.142;8.724;2023-03-01T09:01:08;26.10;;;15.18;;
19891;SDS011;10108;50.142;8.724;2023-03-01T09:03:38;26.80;;;15.02;;
19891;SDS011;10108;50.142;8.724;2023-03-01T09:06:04;27.33;;;15.77;;
19891;SDS011;10108;50.142;8.724;2023-03-01T09:08:36;27.08;;;16.73;;
19891;SDS011;10108;50.142;8.724;2023-03-01T09:11:04;29.00;;;15.77;;
19891;SDS011;10108;50.142;8.724;2023-03-01T09:13:32;27.42;;;15.80;;
19891;SDS011;10108;50.142;8.724;2023-03-01T09:16:01;28.85;;;15.52;;
19891;SDS011;10108;50.142;8.724;2023-03-01T09:18:28;28.63;;;16.27;;
19891;SDS011;10108;50.142;8.724;2023-03-01T09:21:04;25.67;;;14.95;;
19891;SDS011;10108;50.142;8.724;2023-03-01T09:23:39;28.52;;;15.70;;
19891;SDS011;10108;50.142;8.724;2023-03-01T09:26:10;29.30;;;16.92;;
19891;SDS011;10108;50.142;8.724;2023-03-01T09:28:45;28.35;;;15.98;;
19891;SDS011;10108;50.142;8.724;2023-03-01T09:31:12;33.70;;;16.45;;
19891;SDS011;10108;50.142;8.724;2023-03-01T09:33:39;26.77;;;15.27;;
19891;SDS011;10108;50.142;8.724;2023-03-01T09:36:08;28.02;;;15.95;;
19891;SDS011;10108;50.142;8.724;2023-03-01T09:38:37;31.08;;;16.73;;
19891;SDS011;10108;50.142;8.724;2023-03-01T09:41:09;25.65;;;15.82;;
19891;SDS011;10108;50.142;8.724;2023-03-01T09:43:47;24.58;;;15.85;;
19891;SDS011;10108;50.142;8.724;2023-03-01T09:46:20;27.48;;;16.27;;
19891;SDS011;10108;50.142;8.724;2023-03-01T09:48:53;27.30;;;16.95;;
19891;SDS011;10108;50.142;8.724;2023-03-01T09:51:35;26.75;;;16.13;;
19891;SDS011;10108;50.142;8.724;2023-03-01T09:54:02;28.10;;;16.67;;
19891;SDS011;10108;50.142;8.724;2023-03-01T09:56:33;26.73;;;16.00;;
19891;SDS011;10108;50.142;8.724;2023-03-01T09:59:35;30.70;;;16.95;;
19891;SDS011;10108;50.142;8.724;2023-03-01T10:04:48;26.10;;;16.20;;
19891;SDS011;10108;50.142;8.724;2023-03-01T10:10:01;25.55;;;15.25;;
19891;SDS011;10108;50.142;8.724;2023-03-01T10:12:34;25.48;;;15.32;;
19891;SDS011;10108;50.142;8.724;2023-03-01T10:18:09;25.77;;;15.77;;
19891;SDS011;10108;50.142;8.724;2023-03-01T10:20:45;25.92;;;15.60;;
19891;SDS011;10108;50.142;8.724;2023-03-01T10:23:18;25.00;;;15.70;;
19891;SDS011;10108;50.142;8.724;2023-03-01T10:28:57;25.08;;;15.50;;
19891;SDS011;10108;50.142;8.724;2023-03-01T10:31:30;25.65;;;15.23;;
19891;SDS011;10108;50.142;8.724;2023-03-01T10:34:10;27.73;;;16.08;;
19891;SDS011;10108;50.142;8.724;2023-03-01T10:36:50;27.45;;;15.57;;
19891;SDS011;10108;50.142;8.724;2023-03-01T10:39:19;26.63;;;15.02;;
19891;SDS011;10108;50.142;8.724;2023-03-01T10:42:00;26.10;;;15.20;;
19891;SDS011;10108;50.142;8.724;2023-03-01T10:44:44;27.08;;;15.85;;
19891;SDS011;10108;50.142;8.724;2023-03-01T10:52:21;26.17;;;15.32;;
19891;SDS011;10108;50.142;8.724;2023-03-01T10:54:51;27.70;;;16.50;;
19891;SDS011;10108;50.142;8.724;2023-03-01T10:57:29;26.08;;;15.43;;
19891;SDS011;10108;50.142;8.724;2023-03-01T11:00:13;26.88;;;14.98;;
19891;SDS011;10108;50.142;8.724;2023-03-01T11:02:42;25.17;;;14.48;;
19891;SDS011;10108;50.142;8.724;2023-03-01T11:10:18;29.02;;;16.05;;
19891;SDS011;10108;50.142;8.724;2023-03-01T11:12:46;24.38;;;15.07;;
19891;SDS011;10108;50.142;8.724;2023-03-01T11:15:19;21.13;;;13.63;;
19891;SDS011;10108;50.142;8.724;2023-03-01T11:17:48;27.08;;;15.48;;
19891;SDS011;10108;50.142;8.724;2023-03-01T11:22:54;25.27;;;14.57;;
19891;SDS011;10108;50.142;8.724;2023-03-01T11:25:26;24.40;;;14.93;;
19891;SDS011;10108;50.142;8.724;2023-03-01T11:27:54;25.08;;;15.18;;
19891;SDS011;10108;50.142;8.724;2023-03-01T11:30:24;23.95;;;14.05;;
19891;SDS011;10108;50.142;8.724;2023-03-01T11:36:07;23.27;;;13.63;;
19891;SDS011;10108;50.142;8.724;2023-03-01T11:38:44;21.40;;;12.60;;
19891;SDS011;10108;50.142;8.724;2023-03-01T11:41:14;21.15;;;12.63;;
19891;SDS011;10108;50.142;8.724;2023-03-01T11:43:59;21.73;;;13.40;;
19891;SDS011;10108;50.142;8.724;2023-03-01T11:46:32;21.77;;;13.40;;
19891;SDS011;10108;50.142;8.724;2023-03-01T11:51:37;21.50;;;13.18;;
19891;SDS011;10108;50.142;8.724;2023-03-01T11:57:00;21.08;;;13.18;;
19891;SDS011;10108;50.142;8.724;2023-03-01T12:05:50;22.45;;;13.18;;
19891;SDS011;10108;50.142;8.724;2023-03-01T12:08:40;21.10;;;13.20;;
19891;SDS011;10108;50.142;8.724;2023-03-01T12:13:57;23.40;;;13.02;;
19891;SDS011;10108;50.142;8.724;2023-03-01T12:19:28;19.13;;;12.40;;
19891;SDS011;10108;50.142;8.724;2023-03-01T12:30:09;22.92;;;12.45;;
19891;SDS011;10108;50.142;8.724;2023-03-01T12:33:36;22.33;;;12.73;;
19891;SDS011;10108;50.142;8.724;2023-03-01T12:36:12;19.73;;;12.55;;
19891;SDS011;10108;50.142;8.724;2023-03-01T12:39:04;18.98;;;12.68;;
19891;SDS011;10108;50.142;8.724;2023-03-01T12:50:38;26.85;;;12.45;;
19891;SDS011;10108;50.142;8.724;2023-03-01T12:53:16;18.60;;;12.15;;
19891;SDS011;10108;50.142;8.724;2023-03-01T12:56:06;19.63;;;12.00;;
19891;SDS011;10108;50.142;8.724;2023-03-01T13:01:33;18.58;;;11.63;;
19891;SDS011;10108;50.142;8.724;2023-03-01T13:07:07;17.17;;;11.82;;
19891;SDS011;10108;50.142;8.724;2023-03-01T13:09:48;19.05;;;11.50;;
19891;SDS011;10108;50.142;8.724;2023-03-01T13:13:14;15.63;;;10.90;;
19891;SDS011;10108;50.142;8.724;2023-03-01T13:17:49;22.13;;;12.10;;
19891;SDS011;10108;50.142;8.724;2023-03-01T13:23:02;22.38;;;12.40;;
19891;SDS011;10108;50.142;8.724;2023-03-01T13:33:45;18.33;;;11.35;;
19891;SDS011;10108;50.142;8.724;2023-03-01T13:44:26;19.70;;;12.65;;
19891;SDS011;10108;50.142;8.724;2023-03-01T13:54:58;22.10;;;12.63;;
19891;SDS011;10108;50.142;8.724;2023-03-01T13:57:31;22.33;;;12.95;;
19891;SDS011;10108;50.142;8.724;2023-03-01T13:59:59;21.08;;;12.40;;
19891;SDS011;10108;50.142;8.724;2023-03-01T14:02:25;27.02;;;13.45;;
19891;SDS011;10108;50.142;8.724;2023-03-01T14:04:58;19.67;;;12.35;;
19891;SDS011;10108;50.142;8.724;2023-03-01T14:07:25;19.40;;;12.15;;
19891;SDS011;10108;50.142;8.724;2023-03-01T14:10:00;22.40;;;12.90;;
19891;SDS011;10108;50.142;8.724;2023-03-01T14:12:44;18.23;;;12.32;;
19891;SDS011;10108;50.142;8.724;2023-03-01T14:15:19;20.00;;;13.43;;
19891;SDS011;10108;50.142;8.724;2023-03-01T14:20:28;22.02;;;12.93;;
19891;SDS011;10108;50.142;8.724;2023-03-01T14:22:58;20.05;;;12.57;;
19891;SDS011;10108;50.142;8.724;2023-03-01T14:25:28;23.58;;;13.43;;
19891;SDS011;10108;50.142;8.724;2023-03-01T14:27:58;23.05;;;13.13;;
19891;SDS011;10108;50.142;8.724;2023-03-01T14:30:31;19.27;;;13.00;;
19891;SDS011;10108;50.142;8.724;2023-03-01T14:33:04;21.92;;;13.85;;
19891;SDS011;10108;50.142;8.724;2023-03-01T14:35:42;21.15;;;12.57;;
19891;SDS011;10108;50.142;8.724;2023-03-01T14:38:22;22.02;;;13.10;;
19891;SDS011;10108;50.142;8.724;2023-03-01T14:41:13;21.92;;;13.23;;
19891;SDS011;10108;50.142;8.724;2023-03-01T14:43:43;19.35;;;12.50;;
19891;SDS011;10108;50.142;8.724;2023-03-01T14:46:19;24.10;;;14.20;;
19891;SDS011;10108;50.142;8.724;2023-03-01T14:48:49;22.08;;;12.88;;
19891;SDS011;10108;50.142;8.724;2023-03-01T14:51:17;21.25;;;12.50;;
19891;SDS011;10108;50.142;8.724;2023-03-01T14:53:43;20.08;;;11.90;;
19891;SDS011;10108;50.142;8.724;2023-03-01T14:56:13;25.30;;;12.88;;
19891;SDS011;10108;50.142;8.724;2023-03-01T14:58:43;18.65;;;11.85;;
19891;SDS011;10108;50.142;8.724;2023-03-01T15:01:10;21.85;;;12.93;;
19891;SDS011;10108;50.142;8.724;2023-03-01T15:03:44;21.73;;;12.80;;
19891;SDS011;10108;50.142;8.724;2023-03-01T15:06:20;20.90;;;12.30;;
19891;SDS011;10108;50.142;8.724;2023-03-01T15:08:50;20.80;;;12.52;;
19891;SDS011;10108;50.142;8.724;2023-03-01T15:11:27;21.45;;;12.48;;
19891;SDS011;10108;50.142;8.724;2023-03-01T15:13:58;25.20;;;12.55;;
19891;SDS011;10108;50.142;8.724;2023-03-01T15:19:15;20.08;;;12.13;;
19891;SDS011;10108;50.142;8.724;2023-03-01T15:21:42;20.15;;;11.65;;
19891;SDS011;10108;50.142;8.724;2023-03-01T15:26:57;19.70;;;12.18;;
19891;SDS011;10108;50.142;8.724;2023-03-01T15:29:32;18.98;;;11.52;;
19891;SDS011;10108;50.142;8.724;2023-03-01T15:32:20;19.17;;;11.95;;
19891;SDS011;10108;50.142;8.724;2023-03-01T15:34:53;16.35;;;10.98;;
19891;SDS011;10108;50.142;8.724;2023-03-01T15:40:20;19.35;;;11.15;;
19891;SDS011;10108;50.142;8.724;2023-03-01T15:43:00;22.38;;;11.52;;
19891;SDS011;10108;50.142;8.724;2023-03-01T15:45:28;19.17;;;11.60;;
19891;SDS011;10108;50.142;8.724;2023-03-01T15:47:58;19.48;;;11.20;;
19891;SDS011;10108;50.142;8.724;2023-03-01T15:53:03;19.55;;;11.50;;
19891;SDS011;10108;50.142;8.724;2023-03-01T15:55:36;19.80;;;11.57;;
19891;SDS011;10108;50.142;8.724;2023-03-01T15:58:08;19.73;;;11.52;;
19891;SDS011;10108;50.142;8.724;2023-03-01T16:00:37;20.45;;;11.75;;
19891;SDS011;10108;50.142;8.724;2023-03-01T16:03:05;20.45;;;11.65;;
19891;SDS011;10108;50.142;8.724;2023-03-01T16:05:34;18.23;;;11.32;;
19891;SDS011;10108;50.142;8.724;2023-03-01T16:08:02;20.13;;;11.75;;
19891;SDS011;10108;50.142;8.724;2023-03-01T16:10:29;20.50;;;12.13;;
19891;SDS011;10108;50.142;8.724;2023-03-01T16:12:56;18.90;;;10.93;;
19891;SDS011;10108;50.142;8.724;2023-03-01T16:15:24;19.15;;;12.23;;
19891;SDS011;10108;50.142;8.724;2023-03-01T16:17:55;17.40;;;11.25;;
19891;SDS011;10108;50.142;8.724;2023-03-01T16:20:24;19.73;;;12.27;;
19891;SDS011;10108;50.142;8.724;2023-03-01T16:22:50;18.40;;;11.05;;
19891;SDS011;10108;50.142;8.724;2023-03-01T16:25:17;21.58;;;11.80;;
19891;SDS011;10108;50.142;8.724;2023-03-01T16:27:45;20.42;;;11.73;;
19891;SDS011;10108;50.142;8.724;2023-03-01T16:30:13;19.50;;;11.60;;
19891;SDS011;10108;50.142;8.724;2023-03-01T16:32:42;18.40;;;11.80;;
19891;SDS011;10108;50.142;8.724;2023-03-01T16:35:11;18.80;;;12.20;;
19891;SDS011;10108;50.142;8.724;2023-03-01T16:37:39;20.90;;;11.80;;
19891;SDS011;10108;50.142;8.724;2023-03-01T16:40:06;25.20;;;11.70;;
19891;SDS011;10108;50.142;8.724;2023-03-01T16:42:40;18.95;;;11.52;;
19891;SDS011;10108;50.142;8.724;2023-03-01T16:45:06;18.35;;;11.70;;
19891;SDS011;10108;50.142;8.724;2023-03-01T16:47:33;21.50;;;11.90;;